• Join FlightAware (Why Join?)
  • Login
  • US Flag 
03:27AM EDT


 

Airport Tracker/Info


-or-


 

Live Flight TrackerFlight Track Log ✈ AAL1554 ✈ 11-Jun-2013 ✈ KSAT - KDFW

Flight Track Log - Related Links

Times and Time Zones

All times are in EDT time to prevent confusion due to time zone crossing. See the AAL1554 flight status page for this flight to view local times or setup timezone preferences in your user account.

Time Position Orientation Groundspeed Altitude Reporting Facility
EDT Latitude Longitude Course Direction KTS MPH feet Rate Location/Type
07:34PM 29.5222 -98.4592 10° North 171 197 2,200  Level Houston Center
07:35PM 29.4856 -98.3883 121° Southeast 220 253 4,800 2,640 Climbing Houston Center
07:36PM 29.5289 -98.3172 55° Northeast 287 330 8,200 2,880 Climbing Houston Center
07:37PM 29.8599 -98.4214 North  Level FlightAware Approximate
07:37PM 29.6142 -98.3283 354° North 313 360 10,800  Level Houston Center
07:38PM 29.9420 -98.4116 10° North  Level FlightAware Approximate
07:38PM 29.7208 -98.3439 353° North 362 417 13,500  Level Houston Center
07:39PM 30.0233 -98.3953 10° North  Level FlightAware Approximate
07:39PM 29.8258 -98.3572 354° North 380 437 16,400  Level Houston Center
07:40PM 29.9428 -98.3717 354° North 392 451 19,200 2,520 Climbing Houston Center
07:41PM 30.0536 -98.3861 354° North 402 463 21,700 2,160 Climbing Houston Center
07:42PM 30.1650 -98.3844 North 428 493 23,700 1,800 Climbing Houston Center
07:43PM 30.2872 -98.3681 North 414 476 25,500 1,560 Climbing Houston Center
07:44PM 30.3989 -98.3514 North 422 486 27,000 1,140 Climbing Houston Center
07:45PM 30.5242 -98.3311 North 441 507 27,900 780 Climbing Houston Center
07:46PM 30.6561 -98.3131 North 463 533 28,700 480 Climbing Houston Center
07:47PM 30.7881 -98.2931 North 469 540 29,000 120 Climbing Houston Center
07:48PM 30.9408 -98.2711 North 469 540 29,000  Level Houston Center
07:49PM 31.0733 -98.2506 North 470 541 29,000  Level Houston Center
07:50PM 31.1561 -98.2411 North 464 534 29,000  Level Fort Worth Center
07:51PM 31.2753 -98.2228 North 443 510 29,000 -600 Level Fort Worth Center
07:52PM 31.4092 -98.2019 North 443 510 27,900 -1,500 Descending Fort Worth Center
07:53PM 31.5200 -98.1592 18° North 435 501 26,000 -1,980 Descending Fort Worth Center
07:54PM 31.6164 -98.0892 32° Northeast 412 474 24,000 -1,860 Descending Fort Worth Center
07:55PM 31.7108 -98.0239 30° Northeast 395 455 22,300 -1,620 Descending Fort Worth Center
07:56PM 31.8050 -97.9608 30° Northeast 390 449 20,800 -1,560 Descending Fort Worth Center
07:57PM 31.8992 -97.8978 30° Northeast 385 443 19,200 -1,500 Descending Fort Worth Center
07:58PM 31.9892 -97.8347 31° Northeast 376 433 17,800 -1,440 Descending Fort Worth Center
07:59PM 32.0686 -97.7811 30° Northeast 376 433 16,400 -1,500 Descending Fort Worth Center
08:00PM 32.1669 -97.7153 30° Northeast 371 427 14,800 -1,500 Descending Fort Worth Center
08:01PM 32.2464 -97.6614 30° Northeast 362 417 13,400 -1,500 Descending Fort Worth Center
08:02PM 32.3425 -97.5953 30° Northeast 357 411 11,800 -1,200 Descending Fort Worth Center
08:03PM 32.4158 -97.5439 31° Northeast 351 404 11,000 -420 Descending Fort Worth Center
08:04PM 32.4931 -97.4800 35° Northeast 316 364 11,000  Level Fort Worth Center
08:05PM 32.5453 -97.4158 46° Northeast 296 341 11,000  Level Fort Worth Center
08:06PM 32.6100 -97.3369 46° Northeast 296 341 11,000  Level Fort Worth Center
08:07PM 32.6725 -97.2653 44° Northeast 303 349 11,000  Level Fort Worth Center
08:08PM 32.7247 -97.2011 46° Northeast 289 333 11,000 -60 Level Fort Worth Center
08:09PM 32.7892 -97.1689 23° Northeast 248 285 10,900 -600 Descending Fort Worth Center
08:10PM 32.8622 -97.1686 360° North 243 280 9,800 -1,260 Descending Fort Worth Center
08:11PM 32.9353 -97.1658 North 248 285 8,400 -1,620 Descending Fort Worth Center
08:12PM 33.0000 -97.1658 360° North 254 292 6,600 -1,800 Descending Fort Worth Center
08:13PM 33.0689 -97.1408 17° North 239 275 4,900 -1,680 Descending Fort Worth Center